Time;durP1;ratioP1;P1;durP2;ratioP2;P2;SDS_P1;SDS_P2;PMS_P1;PMS_P2;Temp;Humidity;BMP_temperature;BMP_pressure;BME280_temperature;BME280_humidity;BME280_pressure;Samples;Min_cycle;Max_cycle;Signal;HPM_P1;HPM_P2
2021/11/10 00:02:06;;;;;;;25.60;8.43;;;;;;;17.08;77.15;102374.69;5055004;28;20068;-53
2021/11/10 00:04:32;;;;;;;;;;;;;;;16.86;79.15;102377.44;5053647;28;20051;-54
2021/11/10 00:06:57;;;;;;;27.67;8.83;;;;;;;16.57;81.39;102383.94;5054630;28;20428;-53
2021/11/10 00:09:23;;;;;;;36.17;9.87;;;;;;;16.54;82.48;102384.31;5054607;28;20527;-54
2021/11/10 00:11:48;;;;;;;40.92;9.80;;;;;;;16.54;84.87;102377.06;5053561;28;20112;-54
2021/11/10 00:14:16;;;;;;;26.23;9.30;;;;;;;16.39;84.20;102381.72;5054417;28;20029;-51
2021/11/10 00:16:42;;;;;;;23.13;9.37;;;;;;;16.45;84.36;102376.38;5054688;28;20033;-48
2021/11/10 00:19:08;;;;;;;25.95;9.82;;;;;;;16.34;84.36;102369.66;5054585;28;20163;-50
2021/11/10 00:21:33;;;;;;;23.38;10.35;;;;;;;16.04;85.95;102352.81;5054175;28;20473;-50
2021/11/10 00:23:59;;;;;;;24.83;11.32;;;;;;;15.91;87.06;102358.94;5053972;28;20037;-49
2021/11/10 00:26:25;;;;;;;31.05;8.90;;;;;;;16.51;82.02;102365.81;5053976;28;20045;-50
2021/11/10 00:28:50;;;;;;;26.67;10.27;;;;;;;16.28;83.21;102361.50;5054211;28;20157;-52
2021/11/10 00:31:18;;;;;;;37.85;9.50;;;;;;;16.64;80.77;102352.41;5053037;28;20056;-54
2021/11/10 00:33:44;;;;;;;33.30;9.82;;;;;;;16.36;82.93;102353.25;5053238;28;20044;-52
2021/11/10 00:36:10;;;;;;;43.78;10.80;;;;;;;16.38;83.88;102353.91;5053826;28;20033;-51
2021/11/10 00:38:36;;;;;;;32.83;10.67;;;;;;;16.16;84.34;102355.81;5052775;28;20041;-52
2021/11/10 00:41:03;;;;;;;28.55;10.18;;;;;;;16.26;84.31;102345.53;5052600;28;20489;-54
2021/11/10 00:43:29;;;;;;;40.65;9.70;;;;;;;16.33;84.04;102353.66;5054210;28;20350;-55
2021/11/10 00:45:54;;;;;;;34.47;10.27;;;;;;;16.27;84.70;102347.19;5053078;28;20056;-51
2021/11/10 00:48:19;;;;;;;26.37;9.80;;;;;;;16.22;85.14;102340.72;5052567;28;20049;-52
2021/11/10 00:50:45;;;;;;;28.37;9.80;;;;;;;16.28;83.92;102339.91;5052534;28;20059;-49
2021/11/10 00:53:11;;;;;;;27.98;10.38;;;;;;;16.30;83.67;102335.16;5053443;28;20072;-52
2021/11/10 00:55:36;;;;;;;44.10;11.00;;;;;;;16.41;82.17;102334.63;5053104;28;20048;-51
2021/11/10 00:58:03;;;;;;;40.57;12.40;;;;;;;16.15;84.02;102338.81;5053620;28;20714;-55
2021/11/10 01:00:29;;;;;;;39.78;11.75;;;;;;;16.18;84.89;102333.00;5053666;28;20386;-53
2021/11/10 01:02:55;;;;;;;32.88;11.73;;;;;;;16.18;83.48;102327.63;5052837;28;20053;-51
2021/11/10 01:05:20;;;;;;;25.95;11.80;;;;;;;16.41;81.43;102329.22;5052797;28;20469;-53
2021/11/10 01:07:46;;;;;;;31.42;11.52;;;;;;;16.33;82.02;102323.94;5052499;28;20049;-53
2021/11/10 01:10:12;;;;;;;31.93;11.17;;;;;;;16.22;84.03;102329.91;5052714;28;20045;-54
2021/11/10 01:12:38;;;;;;;;;;;;;;;16.14;86.08;102322.78;5053600;28;20138;-49
2021/11/10 01:15:07;;;;;;;25.35;10.63;;;;;;;16.04;88.18;102315.03;5053343;28;19940;-51
2021/11/10 01:17:33;;;;;;;38.30;13.50;;;;;;;15.88;89.07;102303.50;5085774;28;20041;-50
2021/11/10 01:20:03;;;;;;;27.95;11.30;;;;;;;15.89;87.45;102304.34;5068310;28;20389;-48
2021/11/10 01:22:30;;;;;;;31.90;11.20;;;;;;;15.66;90.00;102296.44;5052850;28;20382;-53
2021/11/10 01:24:56;;;;;;;36.23;11.50;;;;;;;15.58;90.51;102286.63;5035125;28;20059;-54
2021/11/10 01:27:22;;;;;;;33.38;11.38;;;;;;;15.53;91.43;102283.66;5035124;28;20258;-51
2021/11/10 01:29:48;;;;;;;37.40;12.10;;;;;;;15.28;94.62;102292.13;5052170;28;20049;-53
2021/11/10 01:32:14;;;;;;;36.40;12.00;;;;;;;15.26;95.08;102291.50;5069363;28;20351;-51
2021/11/10 01:34:41;;;;;;;29.15;11.70;;;;;;;15.31;94.39;102279.13;5052101;28;20139;-51
2021/11/10 01:37:12;;;;;;;35.35;11.55;;;;;;;15.30;93.09;102282.00;5069601;28;20148;-50
2021/11/10 01:39:38;;;;;;;27.70;11.70;;;;;;;15.24;92.81;102272.84;5052053;28;20087;-49
2021/11/10 01:42:06;;;;;;;32.05;10.82;;;;;;;15.46;89.78;102256.66;5052715;28;20489;-51
2021/11/10 01:44:38;;;;;;;25.25;11.88;;;;;;;15.63;88.13;102266.13;5052083;28;20040;-53
2021/11/10 01:47:10;;;;;;;29.65;11.65;;;;;;;15.71;86.91;102267.03;5052502;28;20364;-55
2021/11/10 01:49:40;;;;;;;32.47;11.30;;;;;;;15.70;87.89;102270.75;5052531;28;20044;-54
2021/11/10 01:52:08;;;;;;;33.88;11.38;;;;;;;15.23;91.35;102257.69;5052437;28;20033;-49
2021/11/10 01:54:35;;;;;;;29.02;12.05;;;;;;;15.68;87.71;102268.25;5086130;28;20033;-50
2021/11/10 01:57:05;;;;;;;31.98;12.93;;;;;;;15.36;90.00;102275.84;5051655;28;20077;-49
2021/11/10 01:59:35;;;;;;;34.10;12.18;;;;;;;15.26;92.84;102264.53;5051296;28;20040;-50
2021/11/10 02:02:04;;;;;;;35.60;11.95;;;;;;;15.36;92.69;102264.22;5052848;28;20052;-50
2021/11/10 02:04:33;;;;;;;27.70;12.07;;;;;;;15.29;94.41;102270.38;5052546;28;20528;-54
2021/11/10 02:07:00;;;;;;;33.20;12.38;;;;;;;14.93;100.00;102270.41;5052932;28;20041;-54
2021/11/10 02:09:29;;;;;;;24.95;11.55;;;;;;;14.89;100.00;102269.94;5052642;28;20045;-52
2021/11/10 02:11:57;;;;;;;36.78;12.88;;;;;;;14.84;100.00;102267.81;5070313;28;20040;-53
2021/11/10 02:14:25;;;;;;;31.70;12.57;;;;;;;14.98;98.40;102270.69;5052666;28;20045;-50
2021/11/10 02:16:52;;;;;;;36.85;13.23;;;;;;;14.77;100.00;102273.16;5052358;28;20077;-52
2021/11/10 02:19:23;;;;;;;40.63;12.23;;;;;;;14.03;100.00;102274.78;5053125;28;20500;-50
2021/11/10 02:21:58;;;;;;;25.73;11.82;;;;;;;13.88;100.00;102268.53;5051617;28;20036;-53
2021/11/10 02:24:26;;;;;;;28.55;11.48;;;;;;;13.84;100.00;102260.00;5051427;28;20083;-54
2021/11/10 02:26:53;;;;;;;37.13;11.63;;;;;;;14.04;100.00;102259.47;5052050;28;20037;-49
2021/11/10 02:29:22;;;;;;;32.55;12.43;;;;;;;14.14;100.00;102256.50;5053043;28;20047;-50
2021/11/10 02:31:51;;;;;;;37.05;12.98;;;;;;;13.96;100.00;102257.72;5053583;28;20044;-50
2021/11/10 02:34:17;;;;;;;36.42;13.48;;;;;;;13.96;100.00;102251.50;5051411;28;20041;-51
2021/11/10 02:36:44;;;;;;;34.50;13.85;;;;;;;13.91;100.00;102258.25;5038317;28;20049;-50
2021/11/10 02:39:19;;;;;;;32.08;13.15;;;;;;;13.73;100.00;102265.81;5055242;28;20041;-51
2021/11/10 02:41:47;;;;;;;35.53;13.00;;;;;;;13.93;100.00;102265.31;5056217;28;20477;-54
2021/11/10 02:44:21;;;;;;;26.55;12.65;;;;;;;13.86;100.00;102259.81;5056395;28;20064;-54
2021/11/10 02:46:50;;;;;;;31.05;13.25;;;;;;;14.00;100.00;102264.41;5055205;28;20037;-52
2021/11/10 02:49:17;;;;;;;34.00;13.85;;;;;;;14.11;100.00;102257.72;5056166;28;20091;-52
2021/11/10 02:51:58;;;;;;;38.42;13.68;;;;;;;14.14;100.00;102248.44;5057103;28;20039;-51
2021/11/10 02:54:25;;;;;;;34.08;12.85;;;;;;;14.43;100.00;102246.78;5056679;28;20037;-52
2021/11/10 02:56:55;;;;;;;41.22;14.68;;;;;;;14.46;100.00;102249.09;5056360;28;20051;-56
2021/11/10 02:59:22;;;;;;;33.13;14.10;;;;;;;14.40;100.00;102241.75;5054636;28;20053;-55
2021/11/10 03:01:49;;;;;;;31.50;12.65;;;;;;;14.49;100.00;102246.84;5022336;28;20485;-52
2021/11/10 03:04:23;;;;;;;42.08;13.45;;;;;;;14.47;100.00;102246.22;5054957;28;20071;-52
2021/11/10 03:06:52;;;;;;;39.33;13.43;;;;;;;14.36;100.00;102249.38;5055160;28;20048;-53
2021/11/10 03:09:21;;;;;;;32.88;13.60;;;;;;;14.47;100.00;102246.22;5054424;28;20091;-53
2021/11/10 03:11:51;;;;;;;40.85;14.35;;;;;;;14.41;100.00;102246.09;5054509;28;20055;-54
2021/11/10 03:14:18;;;;;;;24.83;12.80;;;;;;;14.42;100.00;102250.50;5054125;28;20504;-55
2021/11/10 03:16:43;;;;;;;;;;;;;;;14.29;100.00;102243.91;5054567;28;20124;-54
2021/11/10 03:19:10;;;;;;;30.25;12.27;;;;;;;14.29;100.00;102232.28;5054463;28;19963;-53
2021/11/10 03:21:36;;;;;;;31.83;13.30;;;;;;;14.10;100.00;102244.44;5055398;28;20041;-51
2021/11/10 03:24:03;;;;;;;45.80;13.85;;;;;;;13.85;100.00;102234.78;5088275;28;20086;-51
2021/11/10 03:26:28;;;;;;;;;;;;;;;13.69;100.00;102235.75;5054340;28;20041;-49
2021/11/10 03:28:55;;;;;;;30.83;14.30;;;;;;;13.97;100.00;102239.72;5087640;28;19916;-53
2021/11/10 03:31:22;;;;;;;;;;;;;;;13.99;100.00;102253.81;5055156;28;20182;-55
2021/11/10 03:33:48;;;;;;;33.17;12.63;;;;;;;13.25;100.00;102247.16;5087567;28;19995;-52
2021/11/10 03:36:15;;;;;;;37.27;12.97;;;;;;;13.30;100.00;102240.25;5053704;28;20040;-54
2021/11/10 03:38:42;;;;;;;40.30;14.25;;;;;;;13.34;100.00;102246.94;5054104;28;20298;-54
2021/11/10 03:41:13;;;;;;;33.70;13.52;;;;;;;13.09;100.00;102242.75;5054129;28;20518;-55
2021/11/10 03:43:39;;;;;;;32.97;12.68;;;;;;;13.25;100.00;102248.03;5053724;28;20037;-53
2021/11/10 03:46:05;;;;;;;36.00;13.20;;;;;;;13.10;100.00;102255.16;5052973;28;20579;-49
2021/11/10 03:48:31;;;;;;;;;;;;;;;13.02;100.00;102256.88;5037101;28;20037;-52
2021/11/10 03:50:57;;;;;;;27.77;12.63;;;;;;;13.07;100.00;102255.50;5054206;28;19916;-53
2021/11/10 03:53:23;;;;;;;27.48;12.38;;;;;;;13.19;100.00;102263.00;5055118;28;20120;-52
2021/11/10 03:55:48;;;;;;;37.53;13.50;;;;;;;13.16;100.00;102255.28;5053441;28;20057;-54
2021/11/10 03:58:14;;;;;;;33.77;12.80;;;;;;;12.70;100.00;102258.75;5053319;28;20277;-53
2021/11/10 04:00:46;;;;;;;30.02;12.20;;;;;;;12.77;100.00;102270.44;5054192;28;20470;-51
2021/11/10 04:03:12;;;;;;;34.50;13.32;;;;;;;13.02;100.00;102261.41;5053922;28;20090;-50
2021/11/10 04:05:42;;;;;;;33.47;13.25;;;;;;;13.07;100.00;102259.06;5053305;28;20025;-51
2021/11/10 04:08:09;;;;;;;38.88;12.93;;;;;;;13.29;100.00;102264.63;5053193;28;20048;-53
2021/11/10 04:10:37;;;;;;;28.80;12.52;;;;;;;13.32;100.00;102261.56;5052918;28;20052;-48
2021/11/10 04:13:04;;;;;;;30.52;12.32;;;;;;;13.17;100.00;102261.50;5036571;28;20041;-49
2021/11/10 04:15:35;;;;;;;36.67;12.73;;;;;;;12.99;100.00;102264.44;5037862;28;20033;-49
2021/11/10 04:18:02;;;;;;;;;;;;;;;13.17;100.00;102261.50;5053580;28;20049;-50
2021/11/10 04:20:29;;;;;;;33.63;13.05;;;;;;;13.12;100.00;102261.19;5053005;28;19983;-49
2021/11/10 04:22:55;;;;;;;28.70;12.80;;;;;;;13.01;100.00;102267.78;5053821;28;20043;-50
2021/11/10 04:25:21;;;;;;;;;;;;;;;13.08;100.00;102262.56;5053581;28;20127;-50
2021/11/10 04:27:47;;;;;;;31.73;11.53;;;;;;;12.67;100.00;102275.16;5087190;28;19921;-51
2021/11/10 04:30:13;;;;;;;41.15;14.60;;;;;;;12.74;100.00;102281.53;5052964;28;20032;-52
2021/11/10 04:32:40;;;;;;;31.63;13.55;;;;;;;12.31;100.00;102283.69;5053093;28;20128;-55
2021/11/10 04:35:08;;;;;;;36.55;13.23;;;;;;;12.58;100.00;102295.88;5052693;28;20048;-48
2021/11/10 04:37:35;;;;;;;36.08;14.38;;;;;;;12.34;100.00;102294.06;5035714;28;20040;-52
2021/11/10 04:40:04;;;;;;;39.03;15.02;;;;;;;12.26;100.00;102302.16;5052631;28;20505;-49
2021/11/10 04:42:30;;;;;;;44.97;14.60;;;;;;;12.16;100.00;102289.75;5052549;28;20068;-49
2021/11/10 04:45:05;;;;;;;37.22;13.13;;;;;;;12.34;100.00;102294.06;5085919;28;20052;-49
2021/11/10 04:47:32;;;;;;;28.73;12.73;;;;;;;12.39;100.00;102286.34;5052757;28;20082;-51
2021/11/10 04:49:57;;;;;;;43.80;13.18;;;;;;;12.01;100.00;102284.25;5052202;28;20454;-50
2021/11/10 04:52:24;;;;;;;30.53;13.23;;;;;;;11.91;100.00;102295.09;5053840;28;20037;-50
2021/11/10 04:54:50;;;;;;;35.92;15.13;;;;;;;12.00;100.00;102285.22;5052261;28;20488;-52
2021/11/10 04:57:16;;;;;;;41.20;12.48;;;;;;;12.22;100.00;102290.91;5052283;28;20049;-50
2021/11/10 04:59:43;;;;;;;32.35;12.57;;;;;;;12.02;100.00;102287.78;5053224;28;20059;-54
2021/11/10 05:04:41;;;;;;;35.88;14.80;;;;;;;12.19;100.00;102267.13;5052208;28;20043;-51
2021/11/10 05:07:11;;;;;;;30.55;15.20;;;;;;;12.10;100.00;102271.66;5052897;28;20110;-49
2021/11/10 05:09:37;;;;;;;34.67;14.70;;;;;;;11.37;100.00;102265.28;5052265;28;20076;-53
2021/11/10 05:12:05;;;;;;;31.30;12.80;;;;;;;11.32;100.00;102269.31;5052337;28;20124;-55
2021/11/10 05:14:31;;;;;;;33.15;13.23;;;;;;;11.69;100.00;102274.34;5055595;28;20041;-49
2021/11/10 05:16:58;;;;;;;34.40;16.05;;;;;;;11.74;100.00;102263.94;5052515;28;20139;-50
2021/11/10 05:19:24;;;;;;;35.97;15.27;;;;;;;11.45;100.00;102270.66;5052321;28;20090;-50
2021/11/10 05:21:50;;;;;;;33.77;15.10;;;;;;;11.93;100.00;102267.28;5052149;28;20060;-50
2021/11/10 05:24:16;;;;;;;;;;;;;;;11.70;100.00;102262.63;5053900;28;20055;-52
2021/11/10 05:26:42;;;;;;;45.30;15.97;;;;;;;11.37;100.00;102259.94;5053347;28;19917;-53
2021/11/10 05:29:08;;;;;;;29.27;14.60;;;;;;;11.44;100.00;102267.16;5053286;28;20044;-52
2021/11/10 05:31:35;;;;;;;42.20;15.68;;;;;;;11.67;100.00;102266.50;5053226;28;20392;-53
2021/11/10 05:34:00;;;;;;;;;;;;;;;11.59;100.00;102253.94;5053372;28;20538;-50
2021/11/10 05:36:26;;;;;;;34.93;16.97;;;;;;;11.85;100.00;102268.97;5053235;28;20011;-53
2021/11/10 05:38:51;;;;;;;35.10;15.57;;;;;;;11.66;100.00;102264.81;5052976;28;20124;-53
2021/11/10 05:41:17;;;;;;;36.13;15.40;;;;;;;11.55;100.00;102257.09;5051800;28;20481;-53
2021/11/10 05:43:43;;;;;;;33.28;15.48;;;;;;;12.03;100.00;102260.78;5053048;28;20305;-52
2021/11/10 05:46:09;;;;;;;29.57;13.70;;;;;;;12.17;100.00;102272.66;5053311;28;20503;-53
2021/11/10 05:48:35;;;;;;;38.15;14.73;;;;;;;12.38;100.00;102271.25;5053360;28;20522;-48
2021/11/10 05:51:02;;;;;;;54.55;15.25;;;;;;;12.28;100.00;102281.34;5053266;28;20048;-53
2021/11/10 05:53:29;;;;;;;34.53;16.00;;;;;;;12.12;100.00;102285.75;5052708;28;20112;-50
2021/11/10 05:55:56;;;;;;;32.22;16.67;;;;;;;12.27;100.00;102271.63;5052988;28;20044;-52
2021/11/10 05:58:28;;;;;;;45.60;14.75;;;;;;;12.01;100.00;102272.69;5052546;28;20040;-50
2021/11/10 06:00:55;;;;;;;32.83;14.77;;;;;;;12.48;100.00;102263.88;5051408;28;20056;-55
2021/11/10 06:03:21;;;;;;;45.50;17.73;;;;;;;12.64;100.00;102269.34;5052203;28;20063;-55
2021/11/10 06:05:50;;;;;;;50.03;17.23;;;;;;;12.57;100.00;102269.19;5052757;28;20039;-54
2021/11/10 06:08:16;;;;;;;39.95;17.80;;;;;;;12.37;100.00;102264.22;5052840;28;20068;-48
2021/11/10 06:10:41;;;;;;;42.42;17.40;;;;;;;12.58;100.00;102252.94;5054413;28;20147;-50
2021/11/10 06:13:07;;;;;;;39.03;19.57;;;;;;;12.64;100.00;102250.56;5056779;28;20167;-50
2021/11/10 06:15:32;;;;;;;47.77;18.10;;;;;;;12.87;100.00;102250.59;5056305;28;20056;-49
2021/11/10 06:17:58;;;;;;;30.70;15.40;;;;;;;12.86;100.00;102251.59;5056454;28;20099;-52
2021/11/10 06:20:23;;;;;;;40.43;18.07;;;;;;;12.87;100.00;102251.44;5056653;28;20029;-55
2021/11/10 06:22:49;;;;;;;24.57;12.97;;;;;;;12.85;100.00;102256.16;5056905;28;20119;-53
2021/11/10 06:25:20;;;;;;;41.42;15.60;;;;;;;12.84;100.00;102253.63;5055335;28;20128;-51
2021/11/10 06:27:46;;;;;;;36.13;16.58;;;;;;;12.44;100.00;102261.69;5055601;28;20048;-51
2021/11/10 06:30:12;;;;;;;37.95;16.77;;;;;;;12.46;100.00;102273.94;5056452;28;20041;-57
2021/11/10 06:32:38;;;;;;;44.53;17.70;;;;;;;12.48;100.00;102274.59;5056327;28;20071;-54
2021/11/10 06:35:05;;;;;;;43.03;18.35;;;;;;;12.27;100.00;102263.59;5056854;28;20041;-51
2021/11/10 06:37:31;;;;;;;37.03;16.40;;;;;;;12.24;100.00;102266.63;5057747;28;20049;-51
2021/11/10 06:39:57;;;;;;;36.63;17.20;;;;;;;12.07;100.00;102280.06;5057679;28;20071;-52
2021/11/10 06:42:23;;;;;;;34.20;17.55;;;;;;;12.09;100.00;102283.41;5038547;28;20274;-53
2021/11/10 06:44:49;;;;;;;;;;;;;;;11.86;100.00;102273.34;5056302;28;20040;-52
2021/11/10 06:47:14;;;;;;;36.23;16.67;;;;;;;11.82;100.00;102269.31;5056118;28;19917;-53
2021/11/10 06:49:41;;;;;;;33.97;17.73;;;;;;;11.51;100.00;102278.00;5055242;28;20436;-51
2021/11/10 06:52:07;;;;;;;36.85;16.67;;;;;;;11.72;100.00;102264.13;5056430;28;20033;-55
2021/11/10 06:54:32;;;;;;;41.35;18.20;;;;;;;11.57;100.00;102271.16;5055802;28;20123;-56
2021/11/10 06:56:58;;;;;;;38.77;17.20;;;;;;;11.57;100.00;102277.38;5054336;28;20041;-53
2021/11/10 06:59:23;;;;;;;39.25;16.88;;;;;;;11.89;100.00;102270.31;5054241;28;20288;-52
2021/11/10 07:01:49;;;;;;;43.20;17.50;;;;;;;11.89;100.00;102275.69;5054403;28;20465;-56
2021/11/10 07:04:15;;;;;;;42.55;17.77;;;;;;;11.96;100.00;102296.44;5054768;28;20390;-54
2021/11/10 07:06:40;;;;;;;42.45;18.13;;;;;;;12.08;100.00;102284.41;5056715;28;20040;-53
2021/11/10 07:09:07;;;;;;;43.40;17.15;;;;;;;12.07;100.00;102290.78;5056514;28;20481;-52
2021/11/10 07:11:36;;;;;;;42.13;19.33;;;;;;;12.24;100.00;102272.81;5055479;28;20120;-54
2021/11/10 07:14:03;;;;;;;32.05;15.60;;;;;;;12.13;100.00;102249.88;5055922;28;20045;-52
2021/11/10 07:16:29;;;;;;;35.88;16.98;;;;;;;12.43;100.00;102212.53;5055970;28;20116;-54
2021/11/10 07:18:55;;;;;;;44.33;19.20;;;;;;;13.03;100.00;102207.53;5054482;28;20115;-54
2021/11/10 07:21:21;;;;;;;46.55;17.83;;;;;;;13.32;100.00;102234.72;5054998;28;20032;-50
2021/11/10 07:23:46;;;;;;;35.47;16.67;;;;;;;13.25;100.00;102245.31;5055546;28;20522;-52
2021/11/10 07:26:12;;;;;;;38.47;15.85;;;;;;;13.30;100.00;102240.25;5055174;28;20056;-52
2021/11/10 07:28:37;;;;;;;40.60;16.77;;;;;;;13.57;100.00;102247.97;5055167;28;20045;-52
2021/11/10 07:31:03;;;;;;;34.33;16.43;;;;;;;13.70;100.00;102267.00;5055778;28;20055;-52
2021/11/10 07:33:29;;;;;;;30.87;15.20;;;;;;;12.83;100.00;102271.59;5054396;28;20381;-50
2021/11/10 07:35:55;;;;;;;37.63;15.30;;;;;;;13.02;100.00;102275.69;5054049;28;20063;-55
2021/11/10 07:38:24;;;;;;;30.23;13.43;;;;;;;13.20;100.00;102298.75;5053419;28;20057;-55
2021/11/10 07:40:52;;;;;;;27.33;14.57;;;;;;;12.72;100.00;102312.25;5054818;28;20040;-53
2021/11/10 07:43:18;;;;;;;35.17;15.38;;;;;;;12.56;100.00;102313.13;5054232;28;20049;-53
2021/11/10 07:45:50;;;;;;;38.13;15.77;;;;;;;13.38;100.00;102311.91;5055372;28;20083;-54
2021/11/10 07:48:15;;;;;;;38.08;15.25;;;;;;;13.15;100.00;102317.25;5054874;28;20045;-55
2021/11/10 07:50:42;;;;;;;32.22;14.02;;;;;;;13.57;100.00;102307.94;5055136;28;20056;-53
2021/11/10 07:53:07;;;;;;;32.80;15.00;;;;;;;13.94;99.90;102307.31;5053600;28;20136;-53
2021/11/10 07:55:33;;;;;;;34.08;14.65;;;;;;;13.21;100.00;102324.59;5036916;28;20246;-52
2021/11/10 07:57:59;;;;;;;35.83;14.75;;;;;;;12.81;100.00;102330.00;5053237;28;20068;-53
2021/11/10 08:00:25;;;;;;;32.92;14.63;;;;;;;13.31;100.00;102322.53;5053382;28;20119;-51
2021/11/10 08:02:50;;;;;;;41.88;17.83;;;;;;;13.28;100.00;102316.69;5054591;28;20048;-53
2021/11/10 08:05:17;;;;;;;27.27;13.80;;;;;;;13.77;100.00;102313.69;5054865;28;20033;-54
2021/11/10 08:07:42;;;;;;;37.90;14.38;;;;;;;13.70;100.00;102325.31;5053107;28;20135;-52
2021/11/10 08:10:10;;;;;;;35.65;15.18;;;;;;;13.83;100.00;102332.78;5053585;28;20143;-50
2021/11/10 08:12:36;;;;;;;36.88;15.32;;;;;;;13.98;100.00;102339.06;5053022;28;20032;-50
2021/11/10 08:15:10;;;;;;;;;;;;;;;13.85;100.00;102339.66;5054775;28;20488;-55
2021/11/10 08:17:36;;;;;;;35.28;13.65;;;;;;;14.05;100.00;102344.53;5054025;28;19964;-55
2021/11/10 08:20:10;;;;;;;34.95;14.48;;;;;;;13.36;100.00;102330.06;5054641;28;20119;-53
2021/11/10 08:22:37;;;;;;;30.88;14.55;;;;;;;13.99;100.00;102332.66;5054773;28;20120;-51
2021/11/10 08:25:04;;;;;;;33.22;14.38;;;;;;;14.71;94.25;102343.06;5054213;28;20106;-52
2021/11/10 08:27:30;;;;;;;36.45;15.05;;;;;;;14.89;89.32;102339.97;5052760;28;20036;-54
2021/11/10 08:29:55;;;;;;;41.37;14.93;;;;;;;14.84;85.96;102327.06;5053746;28;20488;-53
2021/11/10 08:32:21;;;;;;;31.77;12.57;;;;;;;15.59;80.22;102313.38;5053776;28;20364;-53
2021/11/10 08:34:47;;;;;;;32.33;13.85;;;;;;;15.31;81.67;102306.06;5053897;28;20031;-52
2021/11/10 08:37:13;;;;;;;28.42;13.23;;;;;;;16.04;76.23;102306.94;5053805;28;20087;-51
2021/11/10 08:39:39;;;;;;;30.42;13.23;;;;;;;17.33;68.75;102307.38;5052890;28;20072;-53
2021/11/10 08:42:08;;;;;;;32.97;12.27;;;;;;;19.07;58.51;102307.38;5052363;28;20484;-52
2021/11/10 08:44:36;;;;;;;26.13;10.80;;;;;;;19.52;53.18;102301.03;5053988;28;20067;-51
2021/11/10 08:47:04;;;;;;;26.73;10.50;;;;;;;20.10;51.17;102290.13;5054040;28;20253;-51
2021/11/10 08:49:31;;;;;;;22.47;9.50;;;;;;;20.73;47.73;102291.69;5051886;28;20290;-50
2021/11/10 08:51:57;;;;;;;31.63;9.73;;;;;;;20.95;47.18;102296.66;5052031;28;20277;-51
2021/11/10 08:54:25;;;;;;;20.63;9.13;;;;;;;21.00;47.01;102304.16;5036169;28;20262;-51
2021/11/10 08:56:56;;;;;;;24.47;8.97;;;;;;;20.98;46.34;102309.00;5052288;28;20037;-52
2021/11/10 08:59:22;;;;;;;19.93;8.90;;;;;;;21.67;44.92;102321.38;5052231;28;20749;-55
2021/11/10 09:01:53;;;;;;;21.88;9.45;;;;;;;22.51;42.63;102322.25;5036503;28;20369;-53
2021/11/10 09:04:20;;;;;;;16.60;8.17;;;;;;;22.75;41.71;102315.66;5053701;28;20067;-53
2021/11/10 09:06:47;;;;;;;16.47;8.27;;;;;;;23.00;41.17;102314.50;5053378;28;20250;-52
2021/11/10 09:09:14;;;;;;;21.27;8.47;;;;;;;23.95;39.49;102315.00;5051829;28;20416;-53
2021/11/10 09:11:40;;;;;;;21.90;8.63;;;;;;;23.74;38.38;102322.88;5053271;28;20059;-53
2021/11/10 09:14:06;;;;;;;22.92;8.23;;;;;;;22.70;40.01;102311.97;5051684;28;20114;-54
2021/11/10 09:16:31;;;;;;;21.35;8.13;;;;;;;21.99;41.41;102315.63;5052696;28;20041;-56
2021/11/10 09:18:57;;;;;;;24.27;8.30;;;;;;;20.93;43.51;102320.53;5051562;28;20040;-52
2021/11/10 09:21:22;;;;;;;24.90;8.65;;;;;;;20.32;45.54;102318.50;5035427;28;20045;-52
2021/11/10 09:23:48;;;;;;;25.13;7.82;;;;;;;19.43;48.16;102324.06;5053484;28;20040;-53
2021/11/10 09:26:14;;;;;;;18.83;7.82;;;;;;;18.83;49.53;102320.59;5053264;28;20044;-51
2021/11/10 09:28:40;;;;;;;22.67;8.40;;;;;;;18.58;50.47;102320.47;5051600;28;20037;-52
2021/11/10 09:31:06;;;;;;;20.57;7.73;;;;;;;18.65;51.20;102318.53;5053660;28;20083;-53
2021/11/10 09:33:35;;;;;;;22.63;8.40;;;;;;;18.89;50.27;102318.88;5052796;28;20618;-52
2021/11/10 09:36:02;;;;;;;19.03;7.90;;;;;;;18.58;51.26;102320.47;5053701;28;20068;-52
2021/11/10 09:38:27;;;;;;;22.73;8.63;;;;;;;18.85;52.06;102318.50;5053341;28;20298;-53
2021/11/10 09:40:58;;;;;;;39.50;9.68;;;;;;;18.91;52.52;102327.63;5051873;28;20496;-52
2021/11/10 09:43:28;;;;;;;18.33;7.93;;;;;;;18.90;53.09;102325.94;5051583;28;20512;-53
2021/11/10 09:45:55;;;;;;;24.90;9.40;;;;;;;18.42;55.79;102341.53;5053770;28;20270;-53
2021/11/10 09:48:20;;;;;;;21.08;8.90;;;;;;;19.02;54.81;102335.13;5039652;28;20357;-53
2021/11/10 09:50:48;;;;;;;26.47;10.57;;;;;;;19.32;54.08;102326.41;5056729;28;20508;-54
2021/11/10 09:53:14;;;;;;;20.43;9.90;;;;;;;19.48;52.79;102326.94;5055538;28;20044;-54
2021/11/10 09:55:41;;;;;;;26.40;10.40;;;;;;;19.49;52.84;102328.59;5056950;28;20619;-52
2021/11/10 09:58:06;;;;;;;24.67;10.63;;;;;;;20.10;50.73;102330.84;5056832;28;20286;-50
2021/11/10 10:00:47;;;;;;;19.88;9.50;;;;;;;20.88;48.95;102329.41;5055315;28;20174;-54
2021/11/10 10:03:13;;;;;;;31.30;10.63;;;;;;;22.09;44.73;102320.50;5056950;28;20048;-51
2021/11/10 10:05:39;;;;;;;22.73;9.02;;;;;;;21.76;44.72;102317.28;5057068;28;20285;-50
2021/11/10 10:08:05;;;;;;;24.90;9.75;;;;;;;22.05;42.99;102315.50;5056485;28;20493;-50
2021/11/10 10:10:32;;;;;;;26.00;9.00;;;;;;;22.28;42.85;102329.34;5055547;28;20037;-51
2021/11/10 10:13:00;;;;;;;22.37;8.80;;;;;;;22.87;40.58;102323.78;5056457;28;20061;-51
2021/11/10 10:15:28;;;;;;;21.53;10.17;;;;;;;23.06;40.83;102318.97;5056283;28;20037;-51
2021/11/10 10:17:58;;;;;;;24.00;9.27;;;;;;;23.05;40.69;102327.41;5055245;28;20404;-54
2021/11/10 10:20:36;;;;;;;18.07;9.93;;;;;;;22.88;41.17;102338.28;5056275;28;20116;-54
2021/11/10 10:23:08;;;;;;;21.60;8.97;;;;;;;21.92;42.29;102327.47;5056435;28;20041;-51
2021/11/10 10:25:38;;;;;;;21.23;8.40;;;;;;;22.23;42.53;102321.06;5056927;28;20033;-50
2021/11/10 10:28:05;;;;;;;23.27;9.57;;;;;;;23.48;40.84;102314.25;5054922;28;20060;-52
2021/11/10 10:30:45;;;;;;;22.93;8.80;;;;;;;23.64;39.37;102318.06;5056257;28;20037;-52
2021/11/10 10:33:22;;;;;;;26.73;9.67;;;;;;;22.83;40.43;102310.88;5055101;28;20037;-50
2021/11/10 10:35:56;;;;;;;28.77;10.40;;;;;;;22.44;41.13;102306.81;5056270;28;20097;-53
2021/11/10 10:38:29;;;;;;;21.33;8.87;;;;;;;22.10;42.08;102319.41;5056478;28;20045;-53
2021/11/10 10:41:00;;;;;;;19.80;8.93;;;;;;;23.20;40.84;102307.75;5055175;28;20040;-53
2021/11/10 10:43:28;;;;;;;21.47;9.30;;;;;;;25.17;37.02;102307.81;5055762;28;20037;-51
2021/11/10 10:45:56;;;;;;;25.23;9.03;;;;;;;24.95;37.30;102319.63;5056638;28;20068;-53
2021/11/10 10:48:27;;;;;;;17.60;9.03;;;;;;;25.27;36.34;102326.25;5055241;28;20427;-54
2021/11/10 10:51:03;;;;;;;23.43;7.80;;;;;;;25.72;35.45;102321.44;5055521;28;20029;-51
2021/11/10 10:53:36;;;;;;;21.43;8.70;;;;;;;25.10;35.80;102315.38;5056103;28;20116;-52
2021/11/10 10:56:30;;;;;;;18.67;8.60;;;;;;;25.34;35.37;102316.69;5055285;28;20041;-50
2021/11/10 10:59:12;;;;;;;25.30;9.53;;;;;;;23.97;37.23;102321.88;5055669;28;20033;-54
2021/11/10 11:01:43;;;;;;;17.37;9.03;;;;;;;23.66;38.46;102323.28;5055878;28;20033;-54
2021/11/10 11:04:13;;;;;;;31.83;9.93;;;;;;;23.32;39.10;102324.94;5054562;28;20048;-55
2021/11/10 11:06:47;;;;;;;20.03;9.27;;;;;;;23.54;39.50;102312.47;5056460;28;20045;-54
2021/11/10 11:09:19;;;;;;;29.40;9.10;;;;;;;23.55;39.16;102317.69;5053906;28;20036;-56
2021/11/10 11:11:58;;;;;;;20.30;9.20;;;;;;;24.29;37.57;102324.00;5055477;28;20044;-51
2021/11/10 11:14:49;;;;;;;21.47;9.83;;;;;;;23.94;38.25;102322.38;5055650;28;20037;-55